createdAt,value
2022-12-19T00:00:41.427Z,47.60
2022-12-19T00:01:41.517Z,48.90
2022-12-19T00:02:41.571Z,53.60
2022-12-19T00:03:41.454Z,47.33
2022-12-19T00:04:41.395Z,49.88
2022-12-19T00:05:41.379Z,61.71
2022-12-19T00:06:43.729Z,46.61
2022-12-19T00:07:41.370Z,48.33
2022-12-19T00:08:41.370Z,49.64
2022-12-19T00:09:41.364Z,45.47
2022-12-19T00:10:41.342Z,44.02
2022-12-19T00:11:41.350Z,43.62
2022-12-19T00:12:41.331Z,43.54
2022-12-19T00:13:41.467Z,51.44
2022-12-19T00:14:42.314Z,51.86
2022-12-19T00:15:41.315Z,43.05
2022-12-19T00:16:41.355Z,44.28
2022-12-19T00:17:41.300Z,49.69
2022-12-19T00:18:41.288Z,45.32
2022-12-19T00:19:41.295Z,56.80
2022-12-19T00:20:41.281Z,49.40
2022-12-19T00:21:41.255Z,47.74
2022-12-19T00:22:43.319Z,52.11
2022-12-19T00:23:41.247Z,47.29
2022-12-19T00:24:41.254Z,59.97
2022-12-19T00:25:41.230Z,46.60
2022-12-19T00:28:40.758Z,53.81
2022-12-19T00:29:40.753Z,52.00
2022-12-19T00:30:41.833Z,48.46
2022-12-19T00:31:41.954Z,45.82
2022-12-19T00:32:41.812Z,59.96
2022-12-19T00:33:43.659Z,52.73
2022-12-19T00:34:41.804Z,50.26
2022-12-19T00:35:41.800Z,45.60
2022-12-19T00:36:41.793Z,50.23
2022-12-19T00:37:49.428Z,46.22
2022-12-19T00:38:42.867Z,49.00
2022-12-19T00:39:41.776Z,60.59
2022-12-19T00:40:41.768Z,47.47
2022-12-19T00:41:42.570Z,46.31
2022-12-19T00:42:41.743Z,45.40
2022-12-19T00:43:41.739Z,52.54
2022-12-19T00:44:41.722Z,46.79
2022-12-19T00:45:41.798Z,55.47
2022-12-19T00:46:41.718Z,49.89
2022-12-19T00:47:41.762Z,48.29
2022-12-19T00:48:41.710Z,56.37
2022-12-19T00:49:41.691Z,48.38
2022-12-19T00:50:42.152Z,48.16
2022-12-19T00:51:41.675Z,50.65
2022-12-19T00:52:41.666Z,44.78
2022-12-19T00:53:41.753Z,48.98
2022-12-19T00:54:41.987Z,54.91
2022-12-19T00:55:41.624Z,52.95
2022-12-19T00:56:41.639Z,60.46
2022-12-19T00:57:41.639Z,59.32
2022-12-19T00:58:46.547Z,56.30
2022-12-19T00:59:43.602Z,52.37
2022-12-19T01:00:42.287Z,48.42
2022-12-19T01:01:42.049Z,48.88
2022-12-19T01:02:41.660Z,51.90
2022-12-19T01:03:52.914Z,48.11
2022-12-19T01:04:43.558Z,48.86
2022-12-19T01:05:42.184Z,50.29
2022-12-19T01:06:41.561Z,49.94
2022-12-19T01:07:41.555Z,46.71
2022-12-19T01:08:41.534Z,56.08
2022-12-19T01:09:41.531Z,50.00
2022-12-19T01:10:41.609Z,46.58
2022-12-19T01:11:42.120Z,52.38
2022-12-19T01:12:41.527Z,59.51
2022-12-19T01:13:41.514Z,54.38
2022-12-19T01:14:41.488Z,47.64
2022-12-19T01:15:41.480Z,47.88
2022-12-19T01:16:41.527Z,54.87
2022-12-19T01:17:44.254Z,48.42
2022-12-19T01:18:41.709Z,48.94
2022-12-19T01:19:44.531Z,57.35
2022-12-19T01:20:42.456Z,47.06
2022-12-19T01:21:41.467Z,42.62
2022-12-19T01:22:41.440Z,41.52
2022-12-19T01:23:42.197Z,44.66
2022-12-19T01:24:41.426Z,53.24
2022-12-19T01:25:43.141Z,46.53
2022-12-19T01:26:47.285Z,55.88
2022-12-19T01:27:42.498Z,45.99
2022-12-19T01:28:42.198Z,45.40
2022-12-19T01:29:51.760Z,48.02
2022-12-19T01:30:42.386Z,44.83
2022-12-19T01:31:41.398Z,50.89
2022-12-19T01:32:41.370Z,48.29
2022-12-19T01:33:41.359Z,43.88
2022-12-19T01:34:41.354Z,48.83
2022-12-19T01:35:41.346Z,48.01
2022-12-19T01:36:41.329Z,43.79
2022-12-19T01:37:41.326Z,44.14
2022-12-19T01:38:41.310Z,46.97
2022-12-19T01:39:41.305Z,58.27
2022-12-19T01:40:41.298Z,53.62
2022-12-19T01:41:41.304Z,53.66
2022-12-19T01:42:41.301Z,49.19
2022-12-19T01:43:41.395Z,54.80
2022-12-19T01:44:41.338Z,61.26
2022-12-19T01:45:45.885Z,50.23
2022-12-19T01:46:43.296Z,44.98
2022-12-19T01:47:41.250Z,49.74
2022-12-19T01:48:42.212Z,47.26
2022-12-19T01:49:41.224Z,59.35
2022-12-19T01:50:46.092Z,55.47
2022-12-19T01:51:42.208Z,53.66
2022-12-19T01:52:41.212Z,54.37
2022-12-19T01:53:48.799Z,49.74
2022-12-19T01:54:42.207Z,57.67
2022-12-19T01:55:41.180Z,62.13
2022-12-19T01:56:41.153Z,51.16
2022-12-19T01:57:41.135Z,48.73
2022-12-19T01:58:41.131Z,55.54
2022-12-19T01:59:41.223Z,58.13
2022-12-19T02:00:41.155Z,57.04
2022-12-19T02:01:51.036Z,55.23
2022-12-19T02:02:42.206Z,62.40
2022-12-19T02:03:41.097Z,52.32
2022-12-19T02:04:41.092Z,52.56
2022-12-19T02:05:41.089Z,46.95
2022-12-19T02:06:41.075Z,47.51
2022-12-19T02:07:41.076Z,62.84
2022-12-19T02:08:41.071Z,55.70
2022-12-19T02:09:41.049Z,51.73
2022-12-19T02:10:41.038Z,51.52
2022-12-19T02:11:41.053Z,59.71
2022-12-19T02:12:41.028Z,67.07
2022-12-19T02:13:41.048Z,59.29
2022-12-19T02:14:41.010Z,51.68
2022-12-19T02:15:41.108Z,47.25
2022-12-19T02:16:41.008Z,52.93
2022-12-19T02:17:40.991Z,53.82
2022-12-19T02:18:40.997Z,60.26
2022-12-19T02:19:41.705Z,59.38
2022-12-19T02:20:40.985Z,50.22
2022-12-19T02:21:40.992Z,55.80
2022-12-19T02:22:40.996Z,54.51
2022-12-19T02:23:40.952Z,48.17
2022-12-19T02:24:41.217Z,48.25
2022-12-19T02:25:40.942Z,48.86
2022-12-19T02:26:40.941Z,53.17
2022-12-19T02:27:40.943Z,55.93
2022-12-19T02:28:40.927Z,55.27
2022-12-19T02:29:40.924Z,45.59
2022-12-19T02:30:40.895Z,48.00
2022-12-19T02:31:41.043Z,45.81
2022-12-19T02:32:40.889Z,55.85
2022-12-19T02:33:40.873Z,56.99
2022-12-19T02:34:44.394Z,47.18
2022-12-19T02:35:41.857Z,51.26
2022-12-19T02:36:42.640Z,54.28
2022-12-19T02:37:40.848Z,48.38
2022-12-19T02:38:40.871Z,47.53
2022-12-19T02:39:41.687Z,62.73
2022-12-19T02:40:40.832Z,50.07
2022-12-19T02:41:41.705Z,59.44
2022-12-19T02:42:40.821Z,49.32
2022-12-19T02:43:40.804Z,52.56
2022-12-19T02:44:40.800Z,51.12
2022-12-19T02:45:40.848Z,50.45
2022-12-19T02:46:40.782Z,58.59
2022-12-19T02:47:40.884Z,51.42
2022-12-19T02:48:40.781Z,47.80
2022-12-19T02:49:40.791Z,50.24
2022-12-19T02:50:40.788Z,56.26
2022-12-19T02:51:40.741Z,58.50
2022-12-19T02:52:40.737Z,55.68
2022-12-19T02:53:40.733Z,56.57
2022-12-19T02:54:44.830Z,58.23
2022-12-19T02:55:40.737Z,68.78
2022-12-19T02:56:40.709Z,63.13
2022-12-19T02:57:40.722Z,59.55
2022-12-19T02:58:40.692Z,60.84
2022-12-19T02:59:40.708Z,61.03
2022-12-19T03:00:40.689Z,53.03
2022-12-19T03:01:40.778Z,54.19
2022-12-19T03:02:40.835Z,57.08
2022-12-19T03:03:40.836Z,59.73
2022-12-19T03:04:40.676Z,50.28
2022-12-19T03:05:40.641Z,58.15
2022-12-19T03:06:40.642Z,60.29
2022-12-19T03:09:47.490Z,56.80
2022-12-19T03:10:48.339Z,51.74
2022-12-19T03:11:49.434Z,56.43
2022-12-19T03:12:48.572Z,54.23
2022-12-19T03:13:48.549Z,51.34
2022-12-19T03:14:48.548Z,54.21
2022-12-19T03:15:48.544Z,53.67
2022-12-19T03:16:48.568Z,57.11
2022-12-19T03:17:48.526Z,56.01
2022-12-19T03:18:48.600Z,51.92
2022-12-19T03:19:48.495Z,56.41
2022-12-19T03:20:49.430Z,57.60
2022-12-19T03:21:48.533Z,56.53
2022-12-19T03:22:48.487Z,57.34
2022-12-19T03:23:48.499Z,58.81
2022-12-19T03:24:48.469Z,55.80
2022-12-19T03:25:48.490Z,53.85
2022-12-19T03:26:48.456Z,60.85
2022-12-19T03:27:48.458Z,59.56
2022-12-19T03:28:49.440Z,59.71
2022-12-19T03:29:48.429Z,56.58
2022-12-19T03:30:48.502Z,50.15
2022-12-19T03:31:48.414Z,48.92
2022-12-19T03:32:48.407Z,54.35
2022-12-19T03:33:48.393Z,56.97
2022-12-19T03:34:48.488Z,61.23
2022-12-19T03:35:48.397Z,58.02
2022-12-19T03:36:48.398Z,52.11
2022-12-19T03:37:48.379Z,49.51
2022-12-19T03:38:48.366Z,51.12
2022-12-19T03:39:48.350Z,59.84
2022-12-19T03:40:48.365Z,58.44
2022-12-19T03:41:48.350Z,58.98
2022-12-19T03:42:48.332Z,58.25
2022-12-19T03:43:48.322Z,63.14
2022-12-19T03:44:48.309Z,53.11
2022-12-19T03:45:48.321Z,50.91
2022-12-19T03:46:48.301Z,56.08
2022-12-19T03:47:48.313Z,56.78
2022-12-19T03:48:48.287Z,54.54
2022-12-19T03:49:48.276Z,51.25
2022-12-19T03:50:48.365Z,56.59
2022-12-19T03:51:48.266Z,54.05
2022-12-19T03:52:49.249Z,62.94
2022-12-19T03:53:48.261Z,63.56
2022-12-19T03:54:48.243Z,64.30
2022-12-19T03:55:48.944Z,60.66
2022-12-19T03:56:48.218Z,57.37
2022-12-19T03:57:48.212Z,59.59
2022-12-19T03:58:48.203Z,63.52
2022-12-19T03:59:48.206Z,59.95
2022-12-19T04:00:48.201Z,56.50
2022-12-19T04:01:48.313Z,64.54
2022-12-19T04:02:48.176Z,58.09
2022-12-19T04:03:48.187Z,61.87
2022-12-19T04:04:48.167Z,59.44
2022-12-19T04:05:48.155Z,59.89
2022-12-19T04:06:48.254Z,64.14
2022-12-19T04:07:48.143Z,56.72
2022-12-19T04:08:49.132Z,58.90
2022-12-19T04:09:48.136Z,60.20
2022-12-19T04:10:48.123Z,61.47
2022-12-19T04:11:48.112Z,62.63
2022-12-19T04:12:48.117Z,55.97
2022-12-19T04:13:48.093Z,65.00
2022-12-19T04:14:48.091Z,61.53
2022-12-19T04:15:48.113Z,66.00
2022-12-19T04:16:48.073Z,61.86
2022-12-19T04:17:48.065Z,60.77
2022-12-19T04:18:48.076Z,60.57
2022-12-19T04:19:48.052Z,61.99
2022-12-19T04:20:48.047Z,62.99
2022-12-19T04:21:48.027Z,59.50
2022-12-19T04:22:49.129Z,59.51
2022-12-19T04:23:48.026Z,61.16
2022-12-19T04:24:49.008Z,66.46
2022-12-19T04:25:48.880Z,65.12
2022-12-19T04:26:48.876Z,63.45
2022-12-19T04:27:47.985Z,66.21
2022-12-19T04:28:48.998Z,64.61
2022-12-19T04:29:47.980Z,65.99
2022-12-19T04:30:47.999Z,65.19
2022-12-19T04:31:47.961Z,62.64
2022-12-19T04:32:47.968Z,62.20
2022-12-19T04:33:47.938Z,66.02
2022-12-19T04:34:47.933Z,64.89
2022-12-19T04:35:47.939Z,63.91
2022-12-19T04:36:47.923Z,63.85
2022-12-19T04:37:50.422Z,63.07
2022-12-19T04:38:49.076Z,66.17
2022-12-19T04:39:47.903Z,66.37
2022-12-19T04:40:47.895Z,68.33
2022-12-19T04:41:47.875Z,64.45
2022-12-19T04:42:47.860Z,63.37
2022-12-19T04:43:48.884Z,66.41
2022-12-19T04:44:47.859Z,58.81
2022-12-19T04:45:49.707Z,62.36
2022-12-19T04:46:47.873Z,66.08
2022-12-19T04:47:47.835Z,64.43
2022-12-19T04:48:47.837Z,69.96
2022-12-19T04:49:47.812Z,65.49
2022-12-19T04:50:47.814Z,62.97
2022-12-19T04:51:47.805Z,66.39
2022-12-19T04:52:47.806Z,65.92
2022-12-19T04:53:47.784Z,60.98
2022-12-19T04:54:47.892Z,63.83
2022-12-19T04:55:47.768Z,63.61
2022-12-19T04:56:47.760Z,65.76
2022-12-19T04:57:47.771Z,63.76
2022-12-19T04:58:47.743Z,67.78
2022-12-19T04:59:47.747Z,66.63
2022-12-19T05:00:47.734Z,62.24
2022-12-19T05:01:47.823Z,60.52
2022-12-19T05:02:48.603Z,61.93
2022-12-19T05:03:52.712Z,63.48
2022-12-19T05:04:50.455Z,68.22
2022-12-19T05:05:47.696Z,65.38
2022-12-19T05:06:47.685Z,59.41
2022-12-19T05:07:47.692Z,65.62
2022-12-19T05:08:47.697Z,62.66
2022-12-19T05:09:47.660Z,63.83
2022-12-19T05:10:47.751Z,61.80
2022-12-19T05:11:47.657Z,58.89
2022-12-19T05:12:48.666Z,60.51
2022-12-19T05:13:47.645Z,62.68
2022-12-19T05:14:47.617Z,62.22
2022-12-19T05:15:47.637Z,64.25
2022-12-19T05:16:47.612Z,63.26
2022-12-19T05:17:47.601Z,60.72
2022-12-19T05:18:47.596Z,65.05
2022-12-19T05:19:47.587Z,65.46
2022-12-19T05:20:47.571Z,67.85
2022-12-19T05:21:47.565Z,63.44
2022-12-19T05:22:47.558Z,61.13
2022-12-19T05:23:47.580Z,61.84
2022-12-19T05:24:47.561Z,65.54
2022-12-19T05:25:47.536Z,63.13
2022-12-19T05:26:47.629Z,65.82
2022-12-19T05:27:47.528Z,64.68
2022-12-19T05:28:47.513Z,65.60
2022-12-19T05:29:47.520Z,69.69
2022-12-19T05:30:52.060Z,63.23
2022-12-19T05:31:49.523Z,65.19
2022-12-19T05:32:47.498Z,63.75
2022-12-19T05:33:47.477Z,65.29
2022-12-19T05:34:47.480Z,66.40
2022-12-19T05:35:47.496Z,64.35
2022-12-19T05:36:47.459Z,68.17
2022-12-19T05:37:47.447Z,64.79
2022-12-19T05:38:47.497Z,63.42
2022-12-19T05:39:47.438Z,66.16
2022-12-19T05:40:47.423Z,64.52
2022-12-19T05:41:49.195Z,63.59
2022-12-19T05:42:48.517Z,66.44
2022-12-19T05:43:47.399Z,62.45
2022-12-19T05:44:47.409Z,62.81
2022-12-19T05:45:47.398Z,66.60
2022-12-19T05:46:47.409Z,64.99
2022-12-19T05:47:47.375Z,63.00
2022-12-19T05:48:47.369Z,66.01
2022-12-19T05:49:47.382Z,65.02
2022-12-19T05:50:47.348Z,67.26
2022-12-19T05:51:47.373Z,66.53
2022-12-19T05:52:47.335Z,67.38
2022-12-19T05:53:47.324Z,68.33
2022-12-19T05:54:47.313Z,67.31
2022-12-19T05:55:47.319Z,65.38
2022-12-19T05:56:47.332Z,64.47
2022-12-19T05:57:47.296Z,67.20
2022-12-19T05:58:47.315Z,65.58
2022-12-19T05:59:47.273Z,65.21
2022-12-19T06:00:47.270Z,66.63
2022-12-19T06:01:47.333Z,65.11
2022-12-19T06:02:48.055Z,66.82
2022-12-19T06:03:47.342Z,67.63
2022-12-19T06:04:47.239Z,69.92
2022-12-19T06:05:47.225Z,67.31
2022-12-19T06:06:47.217Z,66.21
2022-12-19T06:07:47.210Z,63.66
2022-12-19T06:08:47.415Z,64.84
2022-12-19T06:09:47.201Z,67.33
2022-12-19T06:10:47.189Z,66.86
2022-12-19T06:11:47.199Z,67.58
2022-12-19T06:12:47.167Z,67.28
2022-12-19T06:13:47.174Z,67.39
2022-12-19T06:14:48.049Z,68.41
2022-12-19T06:15:47.186Z,68.58
2022-12-19T06:16:47.143Z,64.93
2022-12-19T06:17:47.973Z,64.45
2022-12-19T06:18:47.126Z,66.52
2022-12-19T06:19:47.109Z,67.31
2022-12-19T06:20:47.113Z,70.43
2022-12-19T06:21:48.486Z,68.89
2022-12-19T06:22:48.086Z,70.18
2022-12-19T06:23:47.093Z,67.49
2022-12-19T06:24:47.087Z,70.35
2022-12-19T06:25:47.070Z,69.65
2022-12-19T06:26:47.103Z,69.52
2022-12-19T06:27:47.062Z,68.51
2022-12-19T06:28:47.108Z,66.80
2022-12-19T06:29:47.054Z,68.27
2022-12-19T06:30:47.131Z,68.57
2022-12-19T06:31:47.094Z,69.47
2022-12-19T06:32:47.007Z,68.86
2022-12-19T06:33:47.024Z,69.31
2022-12-19T06:35:03.827Z,68.44
2022-12-19T06:35:48.984Z,70.47
2022-12-19T06:36:46.980Z,76.20
2022-12-19T06:37:46.969Z,68.64
2022-12-19T06:38:46.973Z,67.77
2022-12-19T06:39:47.955Z,66.85
2022-12-19T06:40:46.942Z,67.58
2022-12-19T06:41:46.947Z,65.52
2022-12-19T06:42:46.917Z,64.82
2022-12-19T06:43:50.536Z,64.18
2022-12-19T06:44:48.912Z,66.28
2022-12-19T06:45:47.913Z,67.18
2022-12-19T06:46:47.022Z,64.86
2022-12-19T06:47:46.882Z,64.02
2022-12-19T06:48:47.883Z,65.00
2022-12-19T06:49:47.382Z,62.66
2022-12-19T06:50:46.864Z,66.81
2022-12-19T06:51:46.842Z,65.92
2022-12-19T06:52:46.839Z,67.03
2022-12-19T06:53:46.847Z,67.68
2022-12-19T06:54:46.834Z,68.67
2022-12-19T06:55:46.827Z,62.67
2022-12-19T06:56:46.825Z,67.91
2022-12-19T06:57:46.803Z,71.74
2022-12-19T06:58:46.840Z,64.76
2022-12-19T06:59:46.806Z,66.18
2022-12-19T07:00:46.835Z,68.15
2022-12-19T07:01:46.870Z,69.33
2022-12-19T07:02:46.985Z,70.75
2022-12-19T07:03:46.779Z,71.18
2022-12-19T07:04:46.742Z,69.42
2022-12-19T07:05:47.373Z,70.45
2022-12-19T21:27:50.138Z,55.95
2022-12-19T21:28:49.144Z,58.11
2022-12-19T21:29:49.121Z,59.95
2022-12-19T21:30:49.113Z,60.83
2022-12-19T21:31:50.294Z,65.56
2022-12-19T21:32:50.185Z,64.42
2022-12-19T21:33:50.206Z,62.00
2022-12-19T21:34:50.175Z,65.39
2022-12-19T21:35:50.178Z,62.36
2022-12-19T21:36:50.158Z,61.53
2022-12-19T21:37:50.256Z,62.69
2022-12-19T21:38:51.000Z,71.19
2022-12-19T21:39:50.127Z,59.90
2022-12-19T21:40:50.122Z,60.58
2022-12-19T21:41:50.116Z,62.04
2022-12-19T21:42:50.117Z,59.93
2022-12-19T21:43:50.106Z,59.33
2022-12-19T21:44:50.103Z,57.65
2022-12-19T21:45:50.082Z,63.92
2022-12-19T21:46:56.073Z,65.16
2022-12-19T21:47:50.061Z,60.92
2022-12-19T21:48:50.054Z,58.07
2022-12-19T21:49:50.128Z,64.25
2022-12-19T21:50:51.079Z,60.32
2022-12-19T21:51:50.048Z,62.29
2022-12-19T21:52:55.628Z,57.43
2022-12-19T21:53:52.045Z,56.33
2022-12-19T21:54:50.044Z,64.18
2022-12-19T21:55:50.021Z,62.18
2022-12-19T21:56:49.993Z,61.62
2022-12-19T21:57:50.519Z,61.07
2022-12-19T21:58:49.993Z,59.66
2022-12-19T21:59:49.995Z,62.60
